createdAt,value
2022-10-08T00:02:43.095Z,45.22
2022-10-08T00:11:05.094Z,45.90
2022-10-08T00:25:29.757Z,46.39
2022-10-08T00:27:59.233Z,46.43
2022-10-08T00:30:31.029Z,46.43
2022-10-08T00:33:01.757Z,46.14
2022-10-08T00:35:33.807Z,45.79
2022-10-08T00:41:02.365Z,45.56
2022-10-08T00:44:16.714Z,45.76
2022-10-08T00:47:09.788Z,45.84
2022-10-08T00:53:06.704Z,45.74
2022-10-08T00:56:02.906Z,45.63
2022-10-08T01:11:05.378Z,45.74
2022-10-08T01:13:44.928Z,45.42
2022-10-08T01:16:45.661Z,45.07
2022-10-08T01:19:38.542Z,44.81
2022-10-08T01:22:22.471Z,44.63
2022-10-08T01:25:10.507Z,44.91
2022-10-08T01:27:50.284Z,45.13
2022-10-08T01:30:25.202Z,44.96
2022-10-08T01:33:06.276Z,44.86
2022-10-08T01:35:46.653Z,45.02
2022-10-08T01:38:21.461Z,45.00
2022-10-08T01:41:00.819Z,45.17
2022-10-08T01:43:39.504Z,45.18
2022-10-08T01:46:19.646Z,45.24
2022-10-08T01:48:52.145Z,45.53
2022-10-08T01:51:29.705Z,45.30
2022-10-08T01:54:12.811Z,45.31
2022-10-08T01:56:47.146Z,45.62
2022-10-08T01:59:27.853Z,45.17
2022-10-08T02:02:03.554Z,45.14
2022-10-08T02:04:39.425Z,45.01
2022-10-08T02:07:10.259Z,45.17
2022-10-08T02:09:42.175Z,45.49
2022-10-08T02:12:13.147Z,45.43
2022-10-08T02:14:50.549Z,45.17
2022-10-08T02:17:26.993Z,45.05
2022-10-08T02:20:01.066Z,45.16
2022-10-08T02:22:34.964Z,45.35
2022-10-08T02:25:11.561Z,45.63
2022-10-08T02:27:52.418Z,45.65
2022-10-08T02:30:26.801Z,45.76
2022-10-08T02:33:04.592Z,45.90
2022-10-08T02:35:45.712Z,45.78
2022-10-08T02:38:22.578Z,45.91
2022-10-08T02:40:58.274Z,45.68
2022-10-08T02:43:33.057Z,45.53
2022-10-08T02:46:15.226Z,45.50
2022-10-08T02:48:48.387Z,45.62
2022-10-08T02:51:19.951Z,45.83
2022-10-08T02:53:49.853Z,45.90
2022-10-08T02:56:24.903Z,45.96
2022-10-08T02:58:58.026Z,46.25
2022-10-08T03:04:48.171Z,46.40
2022-10-08T03:07:22.353Z,46.31
2022-10-08T03:18:52.807Z,46.53
2022-10-08T03:27:38.416Z,46.19
2022-10-08T03:30:08.346Z,46.33
2022-10-08T03:32:40.048Z,46.35
2022-10-08T03:35:27.379Z,46.35
2022-10-08T03:38:26.311Z,46.72
2022-10-08T03:41:06.533Z,46.78
2022-10-08T03:46:48.817Z,46.88
2022-10-08T03:49:19.530Z,46.97
2022-10-08T03:52:05.823Z,47.12
2022-10-08T03:57:42.789Z,47.21
2022-10-08T04:00:27.080Z,47.39
2022-10-08T04:12:54.755Z,47.69
2022-10-08T04:20:59.597Z,47.79
2022-10-08T04:23:37.428Z,47.82
2022-10-08T04:26:07.601Z,47.60
2022-10-08T04:31:32.704Z,47.77
2022-10-08T04:34:06.589Z,48.42
2022-10-08T04:36:50.092Z,48.08
2022-10-08T04:39:20.744Z,48.03
2022-10-08T04:45:25.053Z,48.05
2022-10-08T05:10:08.333Z,48.06
2022-10-08T05:12:46.616Z,47.87
2022-10-08T05:15:15.201Z,48.01
2022-10-08T05:17:43.939Z,47.81
2022-10-08T05:20:12.876Z,47.48
2022-10-08T05:22:41.440Z,47.59
2022-10-08T05:25:11.573Z,47.39
2022-10-08T05:27:40.158Z,47.39
2022-10-08T05:30:18.553Z,47.53
2022-10-08T05:32:50.267Z,47.27
2022-10-08T05:35:18.840Z,47.39
2022-10-08T05:37:49.197Z,47.30
2022-10-08T05:40:20.746Z,47.33
2022-10-08T05:42:49.333Z,47.38
2022-10-08T05:45:17.960Z,47.66
2022-10-08T05:47:48.996Z,47.83
2022-10-08T05:50:17.755Z,47.86
2022-10-08T05:52:46.197Z,47.44
2022-10-08T05:55:14.810Z,47.71
2022-10-08T05:57:50.337Z,47.67
2022-10-08T06:00:18.911Z,47.32
2022-10-08T06:02:47.418Z,47.53
2022-10-08T06:05:18.302Z,47.74
2022-10-08T06:07:46.680Z,47.88
2022-10-08T06:10:19.379Z,47.81
2022-10-08T06:12:51.597Z,48.10
2022-10-08T06:15:20.215Z,48.07
2022-10-08T06:17:48.493Z,47.80
2022-10-08T06:20:16.937Z,48.13
2022-10-08T06:22:45.884Z,48.05
2022-10-08T06:25:17.648Z,48.03
2022-10-08T06:27:52.318Z,48.31
2022-10-08T07:06:20.255Z,48.63
2022-10-08T07:08:48.542Z,48.42
2022-10-08T07:11:19.590Z,48.30
2022-10-08T07:13:48.951Z,48.28
2022-10-08T07:16:36.049Z,48.35
2022-10-08T07:19:04.529Z,48.69
2022-10-08T07:22:02.289Z,48.89
2022-10-08T07:27:18.130Z,49.33
2022-10-08T07:29:46.656Z,49.07
2022-10-08T07:32:15.026Z,49.16
2022-10-08T07:34:43.338Z,48.84
2022-10-08T07:37:24.382Z,48.82
2022-10-08T07:44:48.990Z,49.03
2022-10-08T07:47:21.125Z,48.76
2022-10-08T07:49:50.418Z,49.20
2022-10-08T07:52:34.202Z,49.24
2022-10-08T07:55:09.832Z,49.15
2022-10-08T08:09:19.934Z,49.43
2022-10-08T08:11:52.158Z,49.82
2022-10-08T08:14:21.887Z,49.56
2022-10-08T08:16:55.996Z,49.84
2022-10-08T08:19:25.335Z,49.93
2022-10-08T08:21:58.616Z,49.91
2022-10-08T08:24:52.903Z,49.97
2022-10-08T08:27:25.686Z,50.03
2022-10-08T08:30:12.345Z,49.96
2022-10-08T08:32:44.284Z,49.91
2022-10-08T08:35:26.656Z,50.16
2022-10-08T08:38:10.074Z,50.05
2022-10-08T08:41:44.616Z,49.98
2022-10-08T08:44:29.470Z,50.07
2022-10-08T08:47:10.730Z,50.03
2022-10-08T08:50:17.023Z,49.98
2022-10-08T08:52:52.996Z,50.00
2022-10-08T08:56:00.801Z,50.01
2022-10-08T08:58:39.664Z,50.02
2022-10-08T09:04:45.572Z,49.70
2022-10-08T09:07:38.841Z,49.84
2022-10-08T09:10:47.382Z,49.88
2022-10-08T09:21:00.121Z,49.05
2022-10-08T09:27:08.177Z,49.44
2022-10-08T09:30:22.617Z,49.74
2022-10-08T09:33:00.818Z,49.33
2022-10-08T09:36:27.849Z,49.57
2022-10-08T09:39:32.196Z,48.97
2022-10-08T09:46:12.058Z,48.36
2022-10-08T11:11:41.206Z,42.62
2022-10-08T11:17:51.738Z,42.67
2022-10-08T11:20:44.782Z,42.68
2022-10-08T11:23:28.073Z,42.91
2022-10-08T11:45:15.359Z,39.40
2022-10-08T11:48:05.400Z,38.12
2022-10-08T12:31:39.669Z,39.35
2022-10-08T12:34:20.841Z,39.57
2022-10-08T12:46:41.495Z,38.78
2022-10-08T12:49:29.771Z,38.40
2022-10-08T12:52:06.680Z,38.95
2022-10-08T13:06:35.943Z,38.30
2022-10-08T13:39:35.486Z,38.41
2022-10-08T14:26:29.447Z,31.68
2022-10-08T14:52:15.928Z,29.28
2022-10-08T15:31:29.241Z,33.54
2022-10-08T15:34:15.004Z,33.95
2022-10-08T15:36:43.844Z,33.44
2022-10-08T15:44:34.898Z,33.74
2022-10-08T15:47:14.539Z,33.82
2022-10-08T15:49:46.889Z,33.73
2022-10-08T15:52:46.423Z,34.10
2022-10-08T15:55:18.901Z,33.51
2022-10-08T15:57:53.187Z,33.52
2022-10-08T16:00:28.429Z,33.36
2022-10-08T16:03:41.437Z,32.72
2022-10-08T16:09:06.373Z,33.06
2022-10-08T16:11:54.270Z,33.15
2022-10-08T16:17:29.001Z,33.25
2022-10-08T16:27:22.287Z,33.64
2022-10-08T16:29:55.755Z,31.24
2022-10-08T16:32:52.313Z,31.13
2022-10-08T16:38:28.074Z,31.77
2022-10-08T16:41:27.170Z,31.85
2022-10-08T16:44:48.816Z,32.81
2022-10-08T17:08:17.218Z,35.69
2022-10-08T17:11:06.591Z,35.68
2022-10-08T17:47:06.490Z,38.71
2022-10-08T17:49:33.881Z,39.03
2022-10-08T17:52:04.620Z,39.10
2022-10-08T17:54:35.328Z,39.45
2022-10-08T17:57:05.567Z,39.97
2022-10-08T18:00:02.383Z,40.14
2022-10-08T18:02:48.031Z,40.44
2022-10-08T18:32:48.089Z,43.83
2022-10-08T18:35:24.203Z,43.79
2022-10-08T18:37:58.041Z,44.20
2022-10-08T18:40:29.158Z,44.36
2022-10-08T18:46:01.676Z,44.82
2022-10-08T18:49:24.971Z,44.86
2022-10-08T18:51:55.447Z,45.31
2022-10-08T18:54:24.028Z,45.55
2022-10-08T18:56:52.617Z,45.74
2022-10-08T18:59:22.428Z,45.96
2022-10-08T19:01:59.110Z,46.11
2022-10-08T19:04:48.671Z,46.46
2022-10-08T19:07:20.833Z,46.36
2022-10-08T19:09:49.488Z,46.80
2022-10-08T19:12:18.103Z,46.96
2022-10-08T19:14:50.082Z,47.17
2022-10-08T19:17:22.849Z,47.20
2022-10-08T19:20:00.597Z,47.43
2022-10-08T19:22:49.537Z,47.47
2022-10-08T19:25:38.569Z,47.50
2022-10-08T19:28:17.422Z,47.39
2022-10-08T19:31:31.717Z,47.48
2022-10-08T19:34:18.423Z,47.52
2022-10-08T19:37:19.627Z,47.75
2022-10-08T19:40:14.936Z,47.85
2022-10-08T19:43:57.037Z,47.44
2022-10-08T19:46:27.786Z,48.17
2022-10-08T19:49:48.905Z,48.42
2022-10-08T19:52:21.577Z,48.72
2022-10-08T19:54:51.665Z,48.58
2022-10-08T19:57:20.320Z,48.63
2022-10-08T19:59:48.744Z,48.62
2022-10-08T20:02:17.463Z,48.85
2022-10-08T20:04:46.904Z,48.75
2022-10-08T20:07:23.403Z,48.71
2022-10-08T20:09:55.361Z,48.88
2022-10-08T20:12:23.739Z,48.75
2022-10-08T20:14:55.703Z,49.00
2022-10-08T20:17:24.773Z,49.07
2022-10-08T20:20:05.297Z,49.17
2022-10-08T20:23:16.346Z,49.07
2022-10-08T20:25:48.276Z,49.04
2022-10-08T20:28:16.686Z,49.35
2022-10-08T20:30:51.318Z,49.14
2022-10-08T20:33:20.037Z,49.51
2022-10-08T20:35:48.678Z,49.22
2022-10-08T20:38:17.476Z,49.27
2022-10-08T20:40:48.294Z,49.47
2022-10-08T20:43:16.969Z,49.37
2022-10-08T20:45:45.644Z,49.56
2022-10-08T20:48:14.124Z,49.59
2022-10-08T20:50:42.514Z,49.61
2022-10-08T20:53:11.228Z,49.50
2022-10-08T20:55:42.746Z,49.66
2022-10-08T20:58:13.182Z,49.65
2022-10-08T21:00:44.096Z,49.58
2022-10-08T21:03:12.556Z,49.70
2022-10-08T21:05:43.315Z,49.77
2022-10-08T21:08:11.538Z,49.56
2022-10-08T21:10:39.682Z,50.03
2022-10-08T21:13:07.823Z,50.29
2022-10-08T21:15:37.675Z,50.14
2022-10-08T21:18:10.138Z,50.15
2022-10-08T21:20:40.270Z,50.25
2022-10-08T21:23:09.053Z,50.32
2022-10-08T21:25:37.534Z,50.24
2022-10-08T21:28:06.032Z,50.21
2022-10-08T21:30:38.706Z,50.21
2022-10-08T21:33:22.014Z,50.36
2022-10-08T21:35:50.796Z,49.94
2022-10-08T21:38:28.469Z,50.42
2022-10-08T21:41:19.616Z,50.24
2022-10-08T21:44:08.310Z,50.81
2022-10-08T21:50:05.522Z,50.51
2022-10-08T21:53:10.813Z,50.72
2022-10-08T21:55:44.360Z,50.54
2022-10-08T21:58:31.921Z,50.58
2022-10-08T22:01:00.503Z,50.38
2022-10-08T22:03:35.570Z,50.50
2022-10-08T22:06:15.160Z,50.54
2022-10-08T22:08:45.562Z,50.77
2022-10-08T22:11:16.334Z,50.75
2022-10-08T22:13:56.550Z,50.76
2022-10-08T22:22:15.187Z,50.67
2022-10-08T22:24:45.918Z,50.50
2022-10-08T22:27:21.573Z,50.53
2022-10-08T22:29:53.536Z,51.03
2022-10-08T22:32:35.518Z,50.86
2022-10-08T22:35:04.242Z,50.78
2022-10-08T22:37:45.712Z,51.49
2022-10-08T22:40:14.262Z,51.20
2022-10-08T22:42:43.126Z,50.91
2022-10-08T22:45:14.167Z,51.07
2022-10-08T22:47:42.571Z,51.13
2022-10-08T22:50:26.385Z,51.20
2022-10-08T22:52:57.976Z,51.04
2022-10-08T22:55:27.998Z,51.38
2022-10-08T22:58:00.804Z,51.26
2022-10-08T23:00:44.805Z,51.28
2022-10-08T23:03:30.964Z,51.04
2022-10-08T23:06:07.379Z,50.83
2022-10-08T23:08:37.923Z,51.63
2022-10-08T23:11:09.650Z,51.51
2022-10-08T23:13:38.257Z,51.39
2022-10-08T23:16:09.149Z,51.54
2022-10-08T23:18:39.199Z,51.60
2022-10-08T23:21:09.562Z,51.58
2022-10-08T23:23:40.370Z,51.68
2022-10-08T23:26:09.874Z,51.60
2022-10-08T23:28:40.231Z,51.51
2022-10-08T23:31:10.486Z,51.52
2022-10-08T23:33:41.109Z,51.62
2022-10-08T23:36:10.536Z,51.67
2022-10-08T23:38:40.684Z,51.63
2022-10-08T23:41:11.090Z,51.56
2022-10-08T23:43:40.891Z,51.54
2022-10-08T23:46:11.387Z,51.40
2022-10-08T23:48:40.108Z,51.81
2022-10-08T23:51:10.532Z,51.57
2022-10-08T23:53:45.236Z,51.89
2022-10-08T23:56:27.161Z,51.54
2022-10-08T23:58:56.099Z,51.37
